createdAt,value
2016-09-19T00:00:12.286Z,0
2016-09-19T00:01:22.573Z,0
2016-09-19T00:02:32.566Z,0
2016-09-19T00:03:42.556Z,0
2016-09-19T00:04:52.864Z,0
2016-09-19T00:06:02.846Z,0
2016-09-19T00:07:13.134Z,0
2016-09-19T00:08:23.110Z,0
2016-09-19T00:09:32.782Z,0
2016-09-19T00:10:43.063Z,0
2016-09-19T00:11:53.581Z,0
2016-09-19T00:13:03.861Z,0
2016-09-19T00:14:13.836Z,0
2016-09-19T00:15:24.119Z,0
2016-09-19T00:16:34.127Z,0
2016-09-19T00:17:44.104Z,0
2016-09-19T00:18:54.386Z,0
2016-09-19T00:20:04.661Z,0
2016-09-19T00:21:14.954Z,0
2016-09-19T00:22:24.645Z,0
2016-09-19T00:23:34.307Z,0
2016-09-19T00:24:44.592Z,0
2016-09-19T00:25:54.570Z,0
2016-09-19T00:27:04.552Z,0
2016-09-19T00:28:14.838Z,0
2016-09-19T00:29:24.505Z,0
2016-09-19T00:30:34.791Z,0
2016-09-19T00:31:44.459Z,0
2016-09-19T00:32:54.736Z,0
2016-09-19T00:34:05.034Z,0
2016-09-19T00:35:15.316Z,0
2016-09-19T00:36:25.296Z,0
2016-09-19T00:37:35.263Z,0
2016-09-19T00:38:45.539Z,0
2016-09-19T00:39:55.521Z,0
2016-09-19T00:41:05.808Z,0
2016-09-19T00:42:15.804Z,0
2016-09-19T00:43:26.095Z,0
2016-09-19T00:44:36.383Z,0
2016-09-19T00:45:46.678Z,0
2016-09-19T00:46:56.711Z,0
2016-09-19T00:48:06.687Z,0
2016-09-19T00:49:16.050Z,0
2016-09-19T00:50:26.018Z,0
2016-09-19T00:51:36.302Z,0
2016-09-19T00:52:46.589Z,0
2016-09-19T00:53:56.866Z,0
2016-09-19T00:55:06.542Z,0
2016-09-19T00:56:16.229Z,0
2016-09-19T00:57:26.517Z,0
2016-09-19T00:58:36.528Z,0
2016-09-19T00:59:46.506Z,0
2016-09-19T01:00:56.487Z,0
2016-09-19T01:02:06.788Z,0
2016-09-19T01:03:17.081Z,0
2016-09-19T01:04:27.366Z,0
2016-09-19T01:05:37.669Z,0
2016-09-19T01:06:47.945Z,0
2016-09-19T01:07:58.250Z,0
2016-09-19T01:09:08.567Z,0
2016-09-19T01:10:18.856Z,0
2016-09-19T01:11:29.146Z,0
2016-09-19T01:12:39.430Z,0
2016-09-19T01:13:49.402Z,0
2016-09-19T01:14:59.698Z,0
2016-09-19T01:16:09.989Z,0
2016-09-19T01:17:20.285Z,0
2016-09-19T01:18:30.601Z,0
2016-09-19T01:19:40.585Z,0
2016-09-19T01:20:50.562Z,0
2016-09-19T01:21:59.922Z,0
2016-09-19T01:23:09.916Z,0
2016-09-19T01:24:20.206Z,0
2016-09-19T01:25:29.886Z,0
2016-09-19T01:26:39.559Z,0
2016-09-19T01:27:49.235Z,0
2016-09-19T01:28:59.212Z,0
2016-09-19T01:30:09.507Z,0
2016-09-19T01:31:19.810Z,0
2016-09-19T01:32:29.783Z,0
2016-09-19T01:33:39.801Z,0
2016-09-19T01:34:49.777Z,0
2016-09-19T01:36:00.067Z,0
2016-09-19T01:37:10.055Z,0
2016-09-19T01:38:20.032Z,0
2016-09-19T01:39:29.702Z,0
2016-09-19T01:40:39.979Z,0
2016-09-19T01:41:49.658Z,0
2016-09-19T01:42:59.657Z,0
2016-09-19T01:44:09.634Z,0
2016-09-19T01:45:19.612Z,0
2016-09-19T01:46:29.582Z,0
2016-09-19T01:47:39.564Z,0
2016-09-19T01:48:49.555Z,0
2016-09-19T01:49:59.532Z,0
2016-09-19T01:51:09.523Z,0
2016-09-19T01:52:19.504Z,0
2016-09-19T01:53:29.458Z,0
2016-09-19T01:54:39.745Z,0
2016-09-19T01:55:50.042Z,0
2016-09-19T01:57:00.022Z,0
2016-09-19T01:58:10.300Z,0
2016-09-19T01:59:20.282Z,0
2016-09-19T02:00:29.653Z,0
2016-09-19T02:01:39.955Z,0
2016-09-19T02:02:50.243Z,0
2016-09-19T02:04:00.232Z,0
2016-09-19T02:05:10.206Z,0
2016-09-19T02:06:20.491Z,0
2016-09-19T02:07:30.775Z,0
2016-09-19T02:08:41.069Z,0
2016-09-19T02:09:51.046Z,0
2016-09-19T02:11:01.367Z,0
2016-09-19T02:12:11.050Z,0
2016-09-19T02:13:21.346Z,0
2016-09-19T02:14:31.330Z,0
2016-09-19T02:15:40.989Z,0
2016-09-19T02:16:51.267Z,0
2016-09-19T02:18:01.249Z,0
2016-09-19T02:19:10.929Z,0
2016-09-19T02:20:21.237Z,0
2016-09-19T02:21:31.214Z,0
2016-09-19T02:22:41.509Z,0
2016-09-19T02:23:51.802Z,0
2016-09-19T02:25:01.791Z,0
2016-09-19T02:26:11.457Z,0
2016-09-19T02:27:21.151Z,0
2016-09-19T02:28:31.444Z,0
2016-09-19T02:29:41.739Z,0
2016-09-19T02:30:52.016Z,0
2016-09-19T02:32:01.997Z,0
2016-09-19T02:33:11.367Z,0
2016-09-19T02:34:21.648Z,0
2016-09-19T02:35:31.637Z,0
2016-09-19T02:36:41.909Z,0
2016-09-19T02:37:51.904Z,0
2016-09-19T02:39:02.185Z,0
2016-09-19T02:40:12.471Z,0
2016-09-19T02:41:22.463Z,0
2016-09-19T02:42:32.758Z,0
2016-09-19T02:43:42.426Z,0
2016-09-19T02:44:52.712Z,0
2016-09-19T02:46:02.693Z,0
2016-09-19T02:47:12.676Z,0
2016-09-19T02:48:22.658Z,0
2016-09-19T02:49:32.946Z,0
2016-09-19T02:50:43.230Z,0
2016-09-19T02:51:52.597Z,0
2016-09-19T02:53:02.888Z,0
2016-09-19T02:54:12.865Z,0
2016-09-19T02:55:23.151Z,0
2016-09-19T02:56:33.141Z,0
2016-09-19T02:57:43.115Z,0
2016-09-19T02:58:53.387Z,0
2016-09-19T03:00:03.365Z,0
2016-09-19T03:32:33.361Z,0
2016-09-19T03:33:43.623Z,0
2016-09-19T03:34:53.891Z,0
2016-09-19T03:36:04.171Z,0
2016-09-19T03:37:14.153Z,0
2016-09-19T03:38:24.144Z,0
2016-09-19T03:39:34.120Z,0
2016-09-19T03:40:44.403Z,0
2016-09-19T03:41:54.671Z,0
2016-09-19T03:43:04.955Z,0
2016-09-19T03:44:15.239Z,0
2016-09-19T03:45:25.525Z,0
2016-09-19T03:46:35.215Z,0
2016-09-19T03:47:44.579Z,0
2016-09-19T03:48:54.920Z,0
2016-09-19T03:50:05.207Z,0
2016-09-19T03:51:15.488Z,0
2016-09-19T03:52:25.162Z,0
2016-09-19T03:53:35.456Z,0
2016-09-19T03:54:45.429Z,0
2016-09-19T03:55:55.721Z,0
2016-09-19T03:57:05.706Z,0
2016-09-19T03:58:15.678Z,0
2016-09-19T03:59:25.671Z,0
2016-09-19T04:00:35.661Z,0
2016-09-19T04:01:45.950Z,0
2016-09-19T04:02:56.230Z,0
2016-09-19T04:04:06.516Z,0
2016-09-19T04:05:16.482Z,0
2016-09-19T04:06:26.148Z,0
2016-09-19T04:07:36.442Z,0
2016-09-19T04:08:46.725Z,4
2016-09-19T04:09:56.996Z,4
2016-09-19T04:11:07.283Z,0
2016-09-19T04:12:17.254Z,0
2016-09-19T04:13:27.541Z,4
2016-09-19T04:14:37.512Z,4
2016-09-19T04:15:47.495Z,4
2016-09-19T04:16:57.480Z,8
2016-09-19T04:18:07.468Z,8
2016-09-19T04:19:17.447Z,12
2016-09-19T04:20:27.728Z,12
2016-09-19T04:21:37.701Z,16
2016-09-19T04:22:47.372Z,16
2016-09-19T04:23:57.346Z,20
2016-09-19T04:25:07.632Z,24
2016-09-19T04:26:16.994Z,32
2016-09-19T04:27:26.969Z,36
2016-09-19T04:28:36.947Z,44
2016-09-19T04:29:47.219Z,52
2016-09-19T04:30:57.206Z,60
2016-09-19T04:32:07.207Z,72
2016-09-19T04:33:16.876Z,84
2016-09-19T04:34:27.171Z,96
2016-09-19T04:35:37.473Z,112
2016-09-19T04:36:47.755Z,128
2016-09-19T04:37:57.430Z,144
2016-09-19T04:39:07.713Z,164
2016-09-19T04:40:17.696Z,180
2016-09-19T04:41:27.671Z,192
2016-09-19T04:42:37.981Z,212
2016-09-19T04:43:48.255Z,232
2016-09-19T04:44:58.227Z,252
2016-09-19T04:46:07.913Z,276
2016-09-19T04:47:17.890Z,300
2016-09-19T04:48:27.866Z,328
2016-09-19T04:49:38.212Z,352
2016-09-19T04:50:48.515Z,384
2016-09-19T04:51:58.491Z,412
2016-09-19T04:53:08.487Z,436
2016-09-19T04:54:18.471Z,468
2016-09-19T04:55:28.755Z,496
2016-09-19T04:56:38.438Z,532
2016-09-19T04:57:48.709Z,568
2016-09-19T04:58:58.997Z,616
2016-09-19T05:00:09.278Z,636
2016-09-19T05:01:19.265Z,636
2016-09-19T05:02:29.237Z,652
2016-09-19T05:03:39.548Z,668
2016-09-19T05:04:49.823Z,688
2016-09-19T05:05:59.185Z,704
2016-09-19T05:07:09.477Z,728
2016-09-19T05:08:19.763Z,760
2016-09-19T05:09:29.730Z,800
2016-09-19T05:10:40.024Z,844
2016-09-19T05:11:50.335Z,876
2016-09-19T05:13:00.326Z,908
2016-09-19T05:14:10.327Z,936
2016-09-19T05:15:20.620Z,956
2016-09-19T05:16:30.897Z,964
2016-09-19T05:17:40.870Z,972
2016-09-19T05:18:50.858Z,984
2016-09-19T05:20:01.147Z,1016
2016-09-19T05:21:11.157Z,1048
2016-09-19T05:22:20.844Z,1064
2016-09-19T05:23:31.123Z,1080
2016-09-19T05:24:41.411Z,1088
2016-09-19T05:25:50.764Z,1100
2016-09-19T05:27:00.747Z,1112
2016-09-19T05:28:10.743Z,1144
2016-09-19T05:29:20.720Z,1184
2016-09-19T05:30:30.730Z,1212
2016-09-19T05:31:40.722Z,1228
2016-09-19T05:32:51.015Z,1248
2016-09-19T05:34:00.696Z,1268
2016-09-19T05:35:10.693Z,1300
2016-09-19T05:36:20.364Z,1344
2016-09-19T05:37:30.647Z,1364
2016-09-19T05:38:40.633Z,1368
2016-09-19T05:39:50.631Z,1372
2016-09-19T05:41:00.622Z,1392
2016-09-19T05:42:10.291Z,1444
2016-09-19T05:43:19.985Z,1520
2016-09-19T05:44:30.282Z,1616
2016-09-19T05:45:39.969Z,1696
2016-09-19T05:46:50.246Z,1768
2016-09-19T05:48:00.229Z,1824
2016-09-19T05:49:10.521Z,1876
2016-09-19T05:50:19.609Z,1928
2016-09-19T05:51:29.892Z,1964
2016-09-19T05:52:38.948Z,1992
2016-09-19T05:53:48.931Z,2028
2016-09-19T05:54:59.217Z,2076
2016-09-19T05:56:09.198Z,2148
2016-09-19T05:57:18.889Z,2220
2016-09-19T05:58:29.163Z,2276
2016-09-19T05:59:39.129Z,2340
2016-09-19T06:00:48.807Z,2412
2016-09-19T06:01:58.783Z,2512
2016-09-19T06:03:09.057Z,2612
2016-09-19T06:04:19.364Z,2692
2016-09-19T06:05:29.336Z,2752
2016-09-19T06:06:39.316Z,2848
2016-09-19T06:07:48.979Z,2964
2016-09-19T06:08:59.263Z,3100
2016-09-19T06:10:09.547Z,3240
2016-09-19T06:11:19.841Z,3352
2016-09-19T06:12:29.823Z,3420
2016-09-19T06:13:39.814Z,3480
2016-09-19T06:14:50.110Z,3508
2016-09-19T06:16:00.098Z,3580
2016-09-19T06:17:10.380Z,3508
2016-09-19T06:18:20.056Z,3508
2016-09-19T06:19:30.346Z,3536
2016-09-19T06:20:40.033Z,3524
2016-09-19T06:21:50.330Z,3576
2016-09-19T06:22:59.992Z,3652
2016-09-19T06:24:09.960Z,3708
2016-09-19T06:25:20.251Z,3764
2016-09-19T06:26:30.533Z,3780
2016-09-19T06:27:40.833Z,3804
2016-09-19T06:28:50.507Z,3832
2016-09-19T06:30:00.478Z,3848
2016-09-19T06:31:10.461Z,3844
2016-09-19T06:32:20.128Z,3856
2016-09-19T06:33:30.417Z,3904
2016-09-19T06:34:40.085Z,3952
2016-09-19T06:35:50.060Z,3988
2016-09-19T06:36:59.743Z,4000
2016-09-19T06:38:10.044Z,4028
2016-09-19T06:39:19.723Z,4080
2016-09-19T06:40:29.394Z,4124
2016-09-19T06:41:39.687Z,4144
2016-09-19T06:42:50.002Z,4144
2016-09-19T06:43:59.989Z,4180
2016-09-19T06:45:10.301Z,4228
2016-09-19T06:46:20.297Z,4260
2016-09-19T06:47:30.593Z,4280
2016-09-19T06:48:40.896Z,4272
2016-09-19T06:49:50.561Z,4328
2016-09-19T06:51:00.849Z,4440
2016-09-19T06:52:10.214Z,4152
2016-09-19T06:53:20.192Z,4052
2016-09-19T06:54:30.168Z,3912
2016-09-19T06:55:39.849Z,3848
2016-09-19T06:56:49.842Z,3764
2016-09-19T06:57:59.827Z,3572
2016-09-19T06:59:09.495Z,3556
2016-09-19T07:00:19.187Z,3500
2016-09-19T07:01:28.863Z,3680
2016-09-19T07:02:39.164Z,3900
2016-09-19T07:03:48.853Z,4168
2016-09-19T07:04:59.143Z,4408
2016-09-19T07:06:09.473Z,4492
2016-09-19T07:07:19.775Z,4568
2016-09-19T07:08:30.074Z,4608
2016-09-19T07:09:40.054Z,4524
2016-09-19T07:10:49.731Z,4208
2016-09-19T07:12:00.027Z,4076
2016-09-19T07:13:10.004Z,4084
2016-09-19T07:14:20.291Z,4460
2016-09-19T07:15:29.983Z,5232
2016-09-19T07:16:39.957Z,5548
2016-09-19T07:17:49.642Z,5296
2016-09-19T07:18:59.616Z,5300
2016-09-19T07:20:09.924Z,5508
2016-09-19T07:21:19.916Z,5700
2016-09-19T07:22:30.203Z,6148
2016-09-19T07:23:40.189Z,5984
2016-09-19T07:24:50.201Z,5904
2016-09-19T07:26:00.486Z,5008
2016-09-19T07:27:10.780Z,4388
2016-09-19T07:28:21.069Z,4072
2016-09-19T07:29:31.354Z,4548
2016-09-19T07:30:41.338Z,5416
2016-09-19T07:31:51.625Z,5760
2016-09-19T07:33:01.607Z,6044
2016-09-19T07:34:11.589Z,6176
2016-09-19T07:35:21.589Z,5848
2016-09-19T07:36:31.881Z,5876
2016-09-19T07:37:42.178Z,6000
2016-09-19T07:38:52.149Z,6072
2016-09-19T07:40:02.150Z,5524
2016-09-19T07:41:11.822Z,4712
2016-09-19T07:42:21.818Z,4980
2016-09-19T07:43:31.802Z,6312
2016-09-19T07:44:42.101Z,5772
2016-09-19T07:45:52.400Z,7332
2016-09-19T07:47:02.702Z,7836
2016-09-19T07:48:12.064Z,7812
2016-09-19T07:49:22.050Z,8028
2016-09-19T07:50:31.431Z,7884
2016-09-19T07:51:41.742Z,6916
2016-09-19T07:52:52.065Z,7144
2016-09-19T07:54:01.742Z,6484
2016-09-19T07:55:12.052Z,5184
2016-09-19T07:56:22.035Z,4328
2016-09-19T07:57:32.351Z,3968
2016-09-19T07:58:42.351Z,4008
2016-09-19T07:59:52.329Z,4188
2016-09-19T08:01:02.322Z,4408
2016-09-19T08:02:12.610Z,4568
2016-09-19T08:03:22.907Z,5068
2016-09-19T08:04:32.591Z,5740
2016-09-19T08:05:42.883Z,6312
2016-09-19T08:06:52.869Z,7900
2016-09-19T08:08:02.555Z,6792
2016-09-19T08:09:12.848Z,8960
2016-09-19T08:10:22.524Z,7976
2016-09-19T08:11:32.820Z,9836
2016-09-19T08:12:43.118Z,7832
2016-09-19T08:13:53.137Z,7532
2016-09-19T08:15:03.126Z,6360
2016-09-19T08:16:13.418Z,5868
2016-09-19T08:17:23.392Z,6516
2016-09-19T08:18:33.679Z,5616
2016-09-19T08:19:43.348Z,5072
2016-09-19T08:20:53.344Z,4908
2016-09-19T08:22:03.642Z,4936
2016-09-19T08:23:13.004Z,5404
2016-09-19T08:24:22.363Z,6968
2016-09-19T08:25:32.651Z,7124
2016-09-19T08:26:42.944Z,8400
2016-09-19T08:27:53.241Z,7284
2016-09-19T08:29:03.537Z,8276
2016-09-19T08:30:13.822Z,7444
2016-09-19T08:31:23.486Z,7700
2016-09-19T08:32:33.183Z,8332
2016-09-19T08:33:42.558Z,8808
2016-09-19T08:34:52.849Z,9232
2016-09-19T08:36:02.832Z,9416
2016-09-19T08:37:12.845Z,8432
2016-09-19T08:38:23.139Z,9604
2016-09-19T08:39:33.449Z,10956
2016-09-19T08:40:43.144Z,11620
2016-09-19T08:41:53.440Z,11792
2016-09-19T08:43:03.117Z,11620
2016-09-19T08:44:13.098Z,8664
2016-09-19T08:45:23.398Z,8520
2016-09-19T08:46:33.408Z,9032
2016-09-19T08:47:43.701Z,11652
2016-09-19T08:48:53.997Z,11696
2016-09-19T08:50:03.988Z,11392
2016-09-19T08:51:13.955Z,9672
2016-09-19T08:52:23.687Z,10204
2016-09-19T08:53:33.378Z,10944
2016-09-19T08:54:43.365Z,10060
2016-09-19T08:55:53.670Z,9408
2016-09-19T08:57:03.968Z,9680
2016-09-19T08:58:13.990Z,9364
2016-09-19T08:59:23.982Z,9136
2016-09-19T09:00:33.980Z,11420
2016-09-19T09:01:44.266Z,11376
2016-09-19T09:02:53.637Z,12168
2016-09-19T09:04:03.929Z,11824
2016-09-19T09:05:14.417Z,11980
2016-09-19T09:06:24.927Z,12296
2016-09-19T09:07:35.210Z,12004
2016-09-19T09:08:45.221Z,10704
2016-09-19T09:09:54.908Z,9712
2016-09-19T09:11:04.905Z,11392
2016-09-19T09:12:14.278Z,12424
2016-09-19T09:13:24.265Z,11308
2016-09-19T09:14:34.570Z,11428
2016-09-19T09:15:44.552Z,9680
2016-09-19T09:16:54.864Z,9048
2016-09-19T09:18:04.850Z,8948
2016-09-19T09:19:14.216Z,8516
2016-09-19T09:20:24.213Z,8688
2016-09-19T09:21:34.190Z,8168
2016-09-19T09:22:44.186Z,11080
2016-09-19T09:23:54.174Z,8760
2016-09-19T09:25:03.865Z,12264
2016-09-19T09:26:13.843Z,12028
2016-09-19T09:27:23.809Z,9924
2016-09-19T09:28:33.797Z,9380
2016-09-19T09:29:44.094Z,12952
2016-09-19T09:30:54.094Z,12408
2016-09-19T09:32:04.402Z,12888
2016-09-19T09:33:14.377Z,9756
2016-09-19T09:34:24.662Z,9824
2016-09-19T09:35:34.671Z,9244
2016-09-19T09:36:44.653Z,9480
2016-09-19T09:37:54.955Z,9292
2016-09-19T09:39:05.254Z,11472
2016-09-19T09:40:15.243Z,8420
2016-09-19T09:41:25.229Z,8084
2016-09-19T09:42:35.235Z,8972
2016-09-19T09:43:45.528Z,10536
2016-09-19T09:44:55.526Z,11192
2016-09-19T09:46:05.532Z,9456
2016-09-19T09:47:14.890Z,9708
2016-09-19T09:48:24.569Z,9076
2016-09-19T09:49:34.788Z,7588
2016-09-19T09:50:44.785Z,7728
2016-09-19T09:51:55.094Z,7800
2016-09-19T09:53:05.086Z,8176
2016-09-19T09:54:15.323Z,12492
2016-09-19T09:55:25.025Z,12700
2016-09-19T09:56:35.328Z,12416
2016-09-19T09:57:45.005Z,7300
2016-09-19T09:58:55.301Z,6628
2016-09-19T10:00:05.592Z,7612
2016-09-19T10:01:15.905Z,6608
2016-09-19T10:02:25.886Z,6796
2016-09-19T10:03:35.559Z,7436
2016-09-19T10:04:44.931Z,6684
2016-09-19T10:05:54.917Z,6476
2016-09-19T10:07:04.594Z,7156
2016-09-19T10:08:14.593Z,6924
2016-09-19T10:09:23.969Z,7392
2016-09-19T10:10:33.038Z,6644
2016-09-19T10:11:43.020Z,6300
2016-09-19T10:12:52.697Z,6584
2016-09-19T10:14:02.992Z,6404
2016-09-19T10:15:12.664Z,5984
2016-09-19T10:16:22.656Z,7064
2016-09-19T10:17:32.648Z,5792
2016-09-19T10:18:42.635Z,4744
2016-09-19T10:19:52.937Z,4224
2016-09-19T10:21:02.614Z,3524
2016-09-19T10:22:12.591Z,3348
2016-09-19T10:23:22.266Z,3668
2016-09-19T10:24:32.258Z,3708
2016-09-19T10:25:41.951Z,3488
2016-09-19T10:26:51.947Z,3452
2016-09-19T10:28:02.247Z,3976
2016-09-19T10:29:12.246Z,4360
2016-09-19T10:30:21.935Z,4604
2016-09-19T10:31:31.937Z,5208
2016-09-19T10:32:41.929Z,5536
2016-09-19T10:33:51.612Z,5760
2016-09-19T10:35:01.284Z,6348
2016-09-19T10:36:11.279Z,6276
2016-09-19T10:37:20.959Z,5836
2016-09-19T10:38:30.945Z,6008
2016-09-19T10:39:40.936Z,6716
2016-09-19T10:40:50.933Z,7012
2016-09-19T10:42:01.214Z,6736
2016-09-19T10:43:11.202Z,6388
2016-09-19T10:44:21.206Z,5960
2016-09-19T10:45:31.506Z,5544
2016-09-19T10:46:41.810Z,5428
2016-09-19T10:47:51.797Z,5260
2016-09-19T10:49:01.801Z,5336
2016-09-19T10:50:11.792Z,5056
2016-09-19T10:51:22.103Z,4860
2016-09-19T10:52:32.395Z,5092
2016-09-19T10:53:42.697Z,5336
2016-09-19T10:54:52.378Z,5332
2016-09-19T10:56:02.344Z,5604
2016-09-19T10:57:12.638Z,5920
2016-09-19T10:58:22.008Z,5840
2016-09-19T10:59:31.995Z,5556
2016-09-19T11:00:41.981Z,5916
2016-09-19T11:01:51.668Z,8324
2016-09-19T11:03:01.361Z,9144
2016-09-19T11:04:11.349Z,9492
2016-09-19T11:05:21.377Z,8644
2016-09-19T11:06:31.695Z,11504
2016-09-19T11:07:41.991Z,12376
2016-09-19T11:08:52.298Z,11032
2016-09-19T11:10:02.310Z,10576
2016-09-19T11:11:12.320Z,10252
2016-09-19T11:12:22.008Z,9256
2016-09-19T11:13:31.717Z,8976
2016-09-19T11:14:41.705Z,8300
2016-09-19T11:15:51.997Z,10700
2016-09-19T11:17:01.994Z,9172
2016-09-19T11:18:12.284Z,8804
2016-09-19T11:19:22.276Z,10104
2016-09-19T11:20:32.580Z,11368
2016-09-19T11:21:42.260Z,11756
2016-09-19T11:22:51.637Z,8732
2016-09-19T11:24:01.929Z,9756
2016-09-19T11:25:11.616Z,9740
2016-09-19T11:26:21.941Z,8064
2016-09-19T11:27:31.308Z,11400
2016-09-19T11:28:41.623Z,9488
2016-09-19T11:29:51.941Z,10216
2016-09-19T11:31:01.923Z,11424
2016-09-19T11:32:11.929Z,13016
2016-09-19T11:33:21.936Z,13476
2016-09-19T11:34:32.243Z,14344
2016-09-19T11:35:41.925Z,12824
2016-09-19T11:36:51.935Z,10548
2016-09-19T11:38:02.225Z,10024
2016-09-19T11:39:12.255Z,10828
2016-09-19T11:40:22.259Z,10800
2016-09-19T11:41:32.233Z,8796
2016-09-19T11:42:42.529Z,9136
2016-09-19T11:43:52.517Z,9096
2016-09-19T11:45:02.804Z,10208
2016-09-19T11:46:12.814Z,9424
2016-09-19T11:47:22.494Z,8768
2016-09-19T11:49:41.790Z,11948
2016-09-19T11:50:52.103Z,11176
2016-09-19T11:52:02.093Z,9072
2016-09-19T11:53:12.406Z,10576
2016-09-19T11:54:22.424Z,12616
2016-09-19T11:55:32.109Z,10140
2016-09-19T11:56:42.106Z,8112
2016-09-19T11:57:52.418Z,7740
2016-09-19T11:59:02.714Z,8948
2016-09-19T12:00:13.000Z,9692
2016-09-19T12:01:22.687Z,6768
2016-09-19T12:02:32.710Z,6420
2016-09-19T12:03:42.701Z,5688
2016-09-19T12:04:52.373Z,6020
2016-09-19T12:06:02.381Z,10700
2016-09-19T12:07:12.375Z,10536
2016-09-19T12:08:22.352Z,10624
2016-09-19T12:09:32.338Z,10912
2016-09-19T12:10:42.016Z,11272
2016-09-19T12:11:52.313Z,11572
2016-09-19T12:13:02.004Z,11308
2016-09-19T12:14:12.298Z,11772
2016-09-19T12:15:21.977Z,6700
2016-09-19T12:16:32.280Z,10196
2016-09-19T12:17:42.272Z,11064
2016-09-19T12:18:52.248Z,11228
2016-09-19T12:20:02.251Z,10696
2016-09-19T12:21:12.576Z,11224
2016-09-19T12:22:22.873Z,11788
2016-09-19T12:23:32.859Z,11820
2016-09-19T12:24:43.178Z,11804
2016-09-19T12:25:53.174Z,11560
2016-09-19T12:27:02.847Z,11436
2016-09-19T12:28:12.532Z,11172
2016-09-19T12:29:22.219Z,10532
2016-09-19T12:30:32.201Z,10360
2016-09-19T12:31:42.512Z,10480
2016-09-19T12:32:52.513Z,10564
2016-09-19T12:34:02.505Z,10772
2016-09-19T12:35:12.825Z,10824
2016-09-19T12:36:22.824Z,11000
2016-09-19T12:37:32.815Z,9360
2016-09-19T12:38:43.117Z,11316
2016-09-19T12:39:53.101Z,11264
2016-09-19T12:41:03.397Z,11116
2016-09-19T12:42:13.378Z,12732
2016-09-19T12:43:23.378Z,11280
2016-09-19T12:44:33.372Z,8288
2016-09-19T12:45:43.368Z,11388
2016-09-19T12:46:53.380Z,9072
2016-09-19T12:48:03.680Z,7076
2016-09-19T12:49:13.973Z,8016
2016-09-19T12:50:23.653Z,8192
2016-09-19T12:51:33.636Z,10808
2016-09-19T12:52:43.634Z,9896
2016-09-19T12:53:53.637Z,8036
2016-09-19T12:55:03.678Z,7112
2016-09-19T12:56:13.673Z,6736
2016-09-19T12:57:23.965Z,7952
2016-09-19T12:58:33.952Z,6488
2016-09-19T12:59:44.244Z,6440
2016-09-19T13:00:54.226Z,6600
2016-09-19T13:02:04.526Z,6860
2016-09-19T13:03:14.527Z,7644
2016-09-19T13:04:24.225Z,6604
2016-09-19T13:05:34.529Z,5656
2016-09-19T13:06:44.520Z,5180
2016-09-19T13:07:54.526Z,4924
2016-09-19T13:09:04.821Z,4244
2016-09-19T13:10:14.517Z,3316
2016-09-19T13:11:24.819Z,2696
2016-09-19T13:12:35.106Z,2492
2016-09-19T13:13:45.099Z,2420
2016-09-19T13:14:55.385Z,2500
2016-09-19T13:16:05.678Z,2828
2016-09-19T13:17:15.678Z,3232
2016-09-19T13:18:25.351Z,3536
2016-09-19T13:19:35.677Z,3688
2016-09-19T13:20:46.009Z,3616
2016-09-19T13:21:55.696Z,3460
2016-09-19T13:23:06.008Z,3456
2016-09-19T13:24:16.315Z,3372
2016-09-19T13:25:26.006Z,2988
2016-09-19T13:26:35.707Z,2740
2016-09-19T13:27:45.699Z,2500
2016-09-19T13:28:55.377Z,2332
2016-09-19T13:30:05.377Z,2224
2016-09-19T13:31:15.374Z,2036
2016-09-19T13:32:25.661Z,1908
2016-09-19T13:33:35.643Z,1756
2016-09-19T13:34:45.950Z,1516
2016-09-19T13:35:55.653Z,1252
2016-09-19T13:37:05.640Z,1084
2016-09-19T13:38:15.619Z,980
2016-09-19T13:39:25.912Z,1020
2016-09-19T13:40:35.892Z,1124
2016-09-19T13:41:45.887Z,1240
2016-09-19T13:42:55.873Z,1128
2016-09-19T13:44:05.858Z,936
2016-09-19T13:45:15.835Z,868
2016-09-19T13:46:25.815Z,788
2016-09-19T13:47:35.187Z,776
2016-09-19T13:48:45.469Z,788
2016-09-19T13:49:55.769Z,876
2016-09-19T13:51:05.752Z,1144
2016-09-19T13:52:15.465Z,1508
2016-09-19T13:53:25.765Z,1656
2016-09-19T13:54:35.763Z,1716
2016-09-19T13:55:45.758Z,1944
2016-09-19T13:56:55.764Z,2100
2016-09-19T13:58:05.430Z,2256
2016-09-19T13:59:15.099Z,2304
2016-09-19T14:00:24.786Z,2328
2016-09-19T14:01:34.768Z,2200
2016-09-19T14:02:44.452Z,1980
2016-09-19T14:03:54.442Z,1824
2016-09-19T14:05:04.407Z,1792
2016-09-19T14:06:14.088Z,1832
2016-09-19T14:07:24.076Z,1928
2016-09-19T14:08:34.377Z,2320
2016-09-19T14:09:44.368Z,2804
2016-09-19T14:10:54.663Z,3016
2016-09-19T14:12:04.037Z,3084
2016-09-19T14:13:14.344Z,3148
2016-09-19T14:14:24.338Z,3328
2016-09-19T14:15:34.320Z,3500
2016-09-19T14:16:43.996Z,3444
2016-09-19T14:17:53.662Z,3200
2016-09-19T14:19:03.979Z,2896
2016-09-19T14:20:13.962Z,2900
2016-09-19T14:21:23.947Z,2904
2016-09-19T14:22:33.619Z,2936
2016-09-19T14:23:43.632Z,3304
2016-09-19T14:24:53.621Z,3816
2016-09-19T14:26:03.913Z,4228
2016-09-19T14:27:13.600Z,4368
2016-09-19T14:28:23.307Z,4472
2016-09-19T14:29:33.292Z,4412
2016-09-19T14:30:43.307Z,4276
2016-09-19T14:31:53.623Z,4056
2016-09-19T14:33:03.624Z,3888
2016-09-19T14:34:13.633Z,3696
2016-09-19T14:35:23.934Z,3296
2016-09-19T14:36:33.927Z,2880
2016-09-19T14:37:43.624Z,2688
2016-09-19T14:38:53.299Z,2692
2016-09-19T14:40:03.293Z,2712
2016-09-19T14:41:13.605Z,2732
2016-09-19T14:42:23.937Z,2732
2016-09-19T14:43:34.236Z,2776
2016-09-19T14:44:44.539Z,2828
2016-09-19T14:45:54.530Z,2836
2016-09-19T14:47:04.524Z,2852
2016-09-19T14:48:14.989Z,2820
2016-09-19T14:49:24.992Z,2680
2016-09-19T14:50:35.284Z,2584
2016-09-19T14:51:45.285Z,2548
2016-09-19T14:52:54.683Z,2556
2016-09-19T14:54:04.669Z,2516
2016-09-19T14:55:14.963Z,2376
2016-09-19T14:56:25.268Z,2152
2016-09-19T14:57:35.565Z,1920
2016-09-19T14:58:45.866Z,1760
2016-09-19T14:59:56.153Z,1704
2016-09-19T15:01:06.136Z,1632
2016-09-19T15:02:15.821Z,1560
2016-09-19T15:03:26.114Z,1508
2016-09-19T15:04:36.417Z,1576
2016-09-19T15:05:46.106Z,1592
2016-09-19T15:06:56.093Z,1652
2016-09-19T15:08:05.774Z,1848
2016-09-19T15:09:15.457Z,2044
2016-09-19T15:10:25.746Z,2140
2016-09-19T15:11:36.055Z,2132
2016-09-19T15:12:46.368Z,2044
2016-09-19T15:13:56.049Z,1904
2016-09-19T15:15:05.750Z,1696
2016-09-19T15:16:15.730Z,1504
2016-09-19T15:17:25.104Z,1376
2016-09-19T15:18:35.115Z,1308
2016-09-19T15:19:44.801Z,1188
2016-09-19T15:20:55.126Z,1132
2016-09-19T15:22:05.116Z,1076
2016-09-19T15:23:15.412Z,932
2016-09-19T15:24:24.805Z,820
2016-09-19T15:25:35.105Z,728
2016-09-19T15:26:45.402Z,680
2016-09-19T15:27:55.707Z,680
2016-09-19T15:29:05.708Z,672
2016-09-19T15:30:15.706Z,680
2016-09-19T15:31:25.999Z,660
2016-09-19T15:32:36.285Z,592
2016-09-19T15:33:46.603Z,540
2016-09-19T15:34:56.584Z,540
2016-09-19T15:36:06.590Z,580
2016-09-19T15:37:16.878Z,608
2016-09-19T15:38:27.170Z,640
2016-09-19T15:39:37.188Z,708
2016-09-19T15:40:47.163Z,756
2016-09-19T15:41:57.140Z,732
2016-09-19T15:43:06.497Z,672
2016-09-19T15:44:16.179Z,660
2016-09-19T15:45:26.470Z,608
2016-09-19T15:46:36.757Z,600
2016-09-19T15:47:46.747Z,616
2016-09-19T15:48:57.025Z,644
2016-09-19T15:50:06.689Z,660
2016-09-19T15:51:16.402Z,672
2016-09-19T15:52:26.394Z,664
2016-09-19T15:53:36.695Z,636
2016-09-19T15:54:47.002Z,576
2016-09-19T15:55:56.990Z,512
2016-09-19T15:57:06.717Z,448
2016-09-19T15:58:16.735Z,376
2016-09-19T15:59:27.035Z,300
2016-09-19T16:00:37.352Z,264
2016-09-19T16:01:47.647Z,232
2016-09-19T16:02:57.624Z,212
2016-09-19T16:04:07.941Z,200
2016-09-19T16:05:17.320Z,204
2016-09-19T16:06:26.696Z,208
2016-09-19T16:07:36.372Z,204
2016-09-19T16:08:46.359Z,196
2016-09-19T16:09:56.655Z,208
2016-09-19T16:11:06.965Z,244
2016-09-19T16:12:16.955Z,268
2016-09-19T16:13:27.257Z,292
2016-09-19T16:14:37.241Z,304
2016-09-19T16:15:46.923Z,320
2016-09-19T16:16:56.600Z,312
2016-09-19T16:18:06.277Z,296
2016-09-19T16:19:15.966Z,268
2016-09-19T16:20:26.260Z,240
2016-09-19T16:21:36.568Z,224
2016-09-19T16:22:46.570Z,220
2016-09-19T16:23:56.885Z,192
2016-09-19T16:25:06.568Z,164
2016-09-19T16:26:16.878Z,168
2016-09-19T16:27:26.560Z,160
2016-09-19T16:28:36.854Z,128